sensor_id;sensor_type;location;lat;lon;timestamp;temperature;humidity
73586;DHT22;61865;50.232;18.614;2022-08-20T00:00:36;19.10;99.90
73586;DHT22;61865;50.232;18.614;2022-08-20T00:03:01;19.10;99.90
73586;DHT22;61865;50.232;18.614;2022-08-20T00:05:26;19.20;99.90
73586;DHT22;61865;50.232;18.614;2022-08-20T00:07:49;19.00;99.90
73586;DHT22;61865;50.232;18.614;2022-08-20T00:10:13;19.00;99.90
73586;DHT22;61865;50.232;18.614;2022-08-20T00:12:37;19.00;99.90
73586;DHT22;61865;50.232;18.614;2022-08-20T00:15:05;19.00;99.90
73586;DHT22;61865;50.232;18.614;2022-08-20T00:17:27;19.00;99.90
73586;DHT22;61865;50.232;18.614;2022-08-20T00:19:52;19.00;99.90
73586;DHT22;61865;50.232;18.614;2022-08-20T00:22:14;19.00;99.90
73586;DHT22;61865;50.232;18.614;2022-08-20T00:24:35;19.10;99.90
73586;DHT22;61865;50.232;18.614;2022-08-20T00:26:57;19.00;99.90
73586;DHT22;61865;50.232;18.614;2022-08-20T00:29:21;19.00;99.90
73586;DHT22;61865;50.232;18.614;2022-08-20T00:31:43;19.10;99.90
73586;DHT22;61865;50.232;18.614;2022-08-20T00:34:05;19.10;99.90
73586;DHT22;61865;50.232;18.614;2022-08-20T00:36:26;19.10;99.90
73586;DHT22;61865;50.232;18.614;2022-08-20T00:38:48;19.10;99.90
73586;DHT22;61865;50.232;18.614;2022-08-20T00:41:13;19.20;99.90
73586;DHT22;61865;50.232;18.614;2022-08-20T00:43:37;19.20;99.90
73586;DHT22;61865;50.232;18.614;2022-08-20T00:46:06;19.20;99.90
73586;DHT22;61865;50.232;18.614;2022-08-20T00:48:30;19.20;99.90
73586;DHT22;61865;50.232;18.614;2022-08-20T00:50:58;19.20;99.90
73586;DHT22;61865;50.232;18.614;2022-08-20T00:53:22;19.20;99.90
73586;DHT22;61865;50.232;18.614;2022-08-20T00:55:46;19.20;99.90
73586;DHT22;61865;50.232;18.614;2022-08-20T00:58:08;19.20;99.90
73586;DHT22;61865;50.232;18.614;2022-08-20T01:00:32;19.20;99.90
73586;DHT22;61865;50.232;18.614;2022-08-20T01:02:56;19.20;99.90
73586;DHT22;61865;50.232;18.614;2022-08-20T01:05:20;19.20;99.90
73586;DHT22;61865;50.232;18.614;2022-08-20T01:07:43;19.30;99.90
73586;DHT22;61865;50.232;18.614;2022-08-20T01:10:09;19.30;99.90
73586;DHT22;61865;50.232;18.614;2022-08-20T01:12:32;19.20;99.90
73586;DHT22;61865;50.232;18.614;2022-08-20T01:14:55;19.20;99.90
73586;DHT22;61865;50.232;18.614;2022-08-20T01:17:22;19.10;99.90
73586;DHT22;61865;50.232;18.614;2022-08-20T01:19:50;19.20;99.90
73586;DHT22;61865;50.232;18.614;2022-08-20T01:22:19;19.20;99.90
73586;DHT22;61865;50.232;18.614;2022-08-20T01:25:05;19.30;99.90
73586;DHT22;61865;50.232;18.614;2022-08-20T01:27:30;19.20;99.90
73586;DHT22;61865;50.232;18.614;2022-08-20T01:29:53;19.20;99.90
73586;DHT22;61865;50.232;18.614;2022-08-20T01:32:15;19.20;99.90
73586;DHT22;61865;50.232;18.614;2022-08-20T01:34:37;19.30;99.90
73586;DHT22;61865;50.232;18.614;2022-08-20T01:36:59;19.30;99.90
73586;DHT22;61865;50.232;18.614;2022-08-20T01:39:24;19.30;99.90
73586;DHT22;61865;50.232;18.614;2022-08-20T01:41:53;19.30;99.90
73586;DHT22;61865;50.232;18.614;2022-08-20T01:44:20;19.30;99.90
73586;DHT22;61865;50.232;18.614;2022-08-20T01:46:46;19.30;99.90
73586;DHT22;61865;50.232;18.614;2022-08-20T01:49:12;19.30;99.90
73586;DHT22;61865;50.232;18.614;2022-08-20T01:51:35;19.30;99.90
73586;DHT22;61865;50.232;18.614;2022-08-20T01:53:57;19.20;99.90
73586;DHT22;61865;50.232;18.614;2022-08-20T01:56:23;19.20;99.90
73586;DHT22;61865;50.232;18.614;2022-08-20T01:58:47;19.20;99.90
73586;DHT22;61865;50.232;18.614;2022-08-20T02:01:21;19.20;99.90
73586;DHT22;61865;50.232;18.614;2022-08-20T02:03:43;19.20;99.90
73586;DHT22;61865;50.232;18.614;2022-08-20T02:06:05;19.20;99.90
73586;DHT22;61865;50.232;18.614;2022-08-20T02:08:27;19.20;99.90
73586;DHT22;61865;50.232;18.614;2022-08-20T02:10:50;19.20;99.90
73586;DHT22;61865;50.232;18.614;2022-08-20T02:13:12;19.20;99.90
73586;DHT22;61865;50.232;18.614;2022-08-20T02:15:35;19.20;99.90
73586;DHT22;61865;50.232;18.614;2022-08-20T02:17:58;19.20;99.90
73586;DHT22;61865;50.232;18.614;2022-08-20T02:20:26;19.30;99.90
73586;DHT22;61865;50.232;18.614;2022-08-20T02:22:52;19.30;99.90
73586;DHT22;61865;50.232;18.614;2022-08-20T02:25:15;19.30;99.90
73586;DHT22;61865;50.232;18.614;2022-08-20T02:27:40;19.30;99.90
73586;DHT22;61865;50.232;18.614;2022-08-20T02:30:05;19.40;99.90
73586;DHT22;61865;50.232;18.614;2022-08-20T02:32:30;19.40;99.90
73586;DHT22;61865;50.232;18.614;2022-08-20T02:34:53;19.40;99.90
73586;DHT22;61865;50.232;18.614;2022-08-20T02:37:15;19.40;99.90
73586;DHT22;61865;50.232;18.614;2022-08-20T02:39:37;19.40;99.90
73586;DHT22;61865;50.232;18.614;2022-08-20T02:42:00;19.40;99.90
73586;DHT22;61865;50.232;18.614;2022-08-20T02:44:23;19.40;99.90
73586;DHT22;61865;50.232;18.614;2022-08-20T02:46:45;19.40;99.90
73586;DHT22;61865;50.232;18.614;2022-08-20T02:49:08;19.50;99.90
73586;DHT22;61865;50.232;18.614;2022-08-20T02:51:31;19.50;99.90
73586;DHT22;61865;50.232;18.614;2022-08-20T02:53:53;19.50;99.90
73586;DHT22;61865;50.232;18.614;2022-08-20T02:56:16;19.40;99.90
73586;DHT22;61865;50.232;18.614;2022-08-20T02:58:39;19.40;99.90
73586;DHT22;61865;50.232;18.614;2022-08-20T03:01:01;19.50;99.90
73586;DHT22;61865;50.232;18.614;2022-08-20T03:03:24;19.40;99.90
73586;DHT22;61865;50.232;18.614;2022-08-20T03:05:46;19.50;99.90
73586;DHT22;61865;50.232;18.614;2022-08-20T03:08:11;19.50;99.90
73586;DHT22;61865;50.232;18.614;2022-08-20T03:10:36;19.50;99.90
73586;DHT22;61865;50.232;18.614;2022-08-20T03:12:58;19.60;99.90
73586;DHT22;61865;50.232;18.614;2022-08-20T03:15:22;19.50;99.90
73586;DHT22;61865;50.232;18.614;2022-08-20T03:17:44;19.50;99.90
73586;DHT22;61865;50.232;18.614;2022-08-20T03:20:07;19.50;99.90
73586;DHT22;61865;50.232;18.614;2022-08-20T03:22:29;19.50;99.90
73586;DHT22;61865;50.232;18.614;2022-08-20T03:24:53;19.50;99.90
73586;DHT22;61865;50.232;18.614;2022-08-20T03:27:15;19.50;99.90
73586;DHT22;61865;50.232;18.614;2022-08-20T03:29:36;19.50;99.90
73586;DHT22;61865;50.232;18.614;2022-08-20T03:31:58;19.50;99.90
73586;DHT22;61865;50.232;18.614;2022-08-20T03:34:20;19.40;99.90
73586;DHT22;61865;50.232;18.614;2022-08-20T03:36:42;19.40;99.90
73586;DHT22;61865;50.232;18.614;2022-08-20T03:39:06;19.40;99.90
73586;DHT22;61865;50.232;18.614;2022-08-20T03:41:32;19.50;99.90
73586;DHT22;61865;50.232;18.614;2022-08-20T03:43:54;19.50;99.90
73586;DHT22;61865;50.232;18.614;2022-08-20T03:46:16;19.50;99.90
73586;DHT22;61865;50.232;18.614;2022-08-20T03:48:38;19.40;99.90
73586;DHT22;61865;50.232;18.614;2022-08-20T03:51:00;19.40;99.90
73586;DHT22;61865;50.232;18.614;2022-08-20T03:53:22;19.40;99.90
73586;DHT22;61865;50.232;18.614;2022-08-20T03:55:46;19.40;99.90
73586;DHT22;61865;50.232;18.614;2022-08-20T03:58:10;19.40;99.90
73586;DHT22;61865;50.232;18.614;2022-08-20T04:00:35;19.40;99.90
73586;DHT22;61865;50.232;18.614;2022-08-20T04:02:57;19.40;99.90
73586;DHT22;61865;50.232;18.614;2022-08-20T04:05:20;19.40;99.90
73586;DHT22;61865;50.232;18.614;2022-08-20T04:07:42;19.40;99.90
73586;DHT22;61865;50.232;18.614;2022-08-20T04:10:06;19.30;99.90
73586;DHT22;61865;50.232;18.614;2022-08-20T04:12:29;19.20;99.90
73586;DHT22;61865;50.232;18.614;2022-08-20T04:14:53;19.30;99.90
73586;DHT22;61865;50.232;18.614;2022-08-20T04:17:16;19.20;99.90
73586;DHT22;61865;50.232;18.614;2022-08-20T04:19:39;19.20;99.90
73586;DHT22;61865;50.232;18.614;2022-08-20T04:22:01;19.30;99.90
73586;DHT22;61865;50.232;18.614;2022-08-20T04:24:23;19.40;99.90
73586;DHT22;61865;50.232;18.614;2022-08-20T04:26:46;19.50;99.90
73586;DHT22;61865;50.232;18.614;2022-08-20T04:29:08;19.50;99.90
73586;DHT22;61865;50.232;18.614;2022-08-20T04:31:31;19.60;99.90
73586;DHT22;61865;50.232;18.614;2022-08-20T04:33:54;19.60;99.90
73586;DHT22;61865;50.232;18.614;2022-08-20T04:36:16;19.60;99.90
73586;DHT22;61865;50.232;18.614;2022-08-20T04:38:37;19.60;99.90
73586;DHT22;61865;50.232;18.614;2022-08-20T04:40:59;19.60;99.90
73586;DHT22;61865;50.232;18.614;2022-08-20T04:43:22;19.40;99.90
73586;DHT22;61865;50.232;18.614;2022-08-20T04:45:45;19.30;99.90
73586;DHT22;61865;50.232;18.614;2022-08-20T04:48:09;19.30;99.90
73586;DHT22;61865;50.232;18.614;2022-08-20T04:50:31;19.50;99.90
73586;DHT22;61865;50.232;18.614;2022-08-20T04:52:55;19.60;99.90
73586;DHT22;61865;50.232;18.614;2022-08-20T04:55:19;19.80;99.90
73586;DHT22;61865;50.232;18.614;2022-08-20T04:57:42;19.80;99.90
73586;DHT22;61865;50.232;18.614;2022-08-20T05:00:09;19.80;99.90
73586;DHT22;61865;50.232;18.614;2022-08-20T05:02:32;19.70;99.90
73586;DHT22;61865;50.232;18.614;2022-08-20T05:04:56;19.70;99.90
73586;DHT22;61865;50.232;18.614;2022-08-20T05:07:18;19.80;99.90
73586;DHT22;61865;50.232;18.614;2022-08-20T05:09:40;19.90;99.90
73586;DHT22;61865;50.232;18.614;2022-08-20T05:12:03;20.00;99.90
73586;DHT22;61865;50.232;18.614;2022-08-20T05:14:25;20.10;99.90
73586;DHT22;61865;50.232;18.614;2022-08-20T05:16:47;20.10;99.90
73586;DHT22;61865;50.232;18.614;2022-08-20T05:19:11;20.30;99.90
73586;DHT22;61865;50.232;18.614;2022-08-20T05:21:35;20.40;99.90
73586;DHT22;61865;50.232;18.614;2022-08-20T05:23:57;20.50;99.90
73586;DHT22;61865;50.232;18.614;2022-08-20T05:26:20;20.70;99.90
73586;DHT22;61865;50.232;18.614;2022-08-20T05:28:45;20.80;99.90
73586;DHT22;61865;50.232;18.614;2022-08-20T05:31:08;20.80;99.90
73586;DHT22;61865;50.232;18.614;2022-08-20T05:33:30;20.90;99.90
73586;DHT22;61865;50.232;18.614;2022-08-20T05:35:52;21.00;99.90
73586;DHT22;61865;50.232;18.614;2022-08-20T05:38:18;21.20;99.90
73586;DHT22;61865;50.232;18.614;2022-08-20T05:40:41;21.30;99.90
73586;DHT22;61865;50.232;18.614;2022-08-20T05:43:03;21.50;99.90
73586;DHT22;61865;50.232;18.614;2022-08-20T05:45:25;21.50;99.90
73586;DHT22;61865;50.232;18.614;2022-08-20T05:47:47;21.40;99.90
73586;DHT22;61865;50.232;18.614;2022-08-20T05:50:11;21.60;99.90
73586;DHT22;61865;50.232;18.614;2022-08-20T05:52:33;21.90;99.90
73586;DHT22;61865;50.232;18.614;2022-08-20T05:54:56;22.00;99.90
73586;DHT22;61865;50.232;18.614;2022-08-20T05:57:18;22.20;99.90
73586;DHT22;61865;50.232;18.614;2022-08-20T05:59:40;22.30;99.90
73586;DHT22;61865;50.232;18.614;2022-08-20T06:02:02;22.50;99.90
73586;DHT22;61865;50.232;18.614;2022-08-20T06:04:44;22.70;99.90
73586;DHT22;61865;50.232;18.614;2022-08-20T06:07:05;22.90;99.90
73586;DHT22;61865;50.232;18.614;2022-08-20T06:09:28;23.10;99.90
73586;DHT22;61865;50.232;18.614;2022-08-20T06:11:51;23.10;99.90
73586;DHT22;61865;50.232;18.614;2022-08-20T06:14:13;23.20;99.90
73586;DHT22;61865;50.232;18.614;2022-08-20T06:16:37;23.40;99.90
73586;DHT22;61865;50.232;18.614;2022-08-20T06:18:59;23.40;99.90
73586;DHT22;61865;50.232;18.614;2022-08-20T06:21:20;23.30;99.90
73586;DHT22;61865;50.232;18.614;2022-08-20T06:23:42;23.20;99.90
73586;DHT22;61865;50.232;18.614;2022-08-20T06:26:05;23.20;99.90
73586;DHT22;61865;50.232;18.614;2022-08-20T06:28:30;23.40;99.90
73586;DHT22;61865;50.232;18.614;2022-08-20T06:30:52;23.30;99.90
73586;DHT22;61865;50.232;18.614;2022-08-20T06:33:13;23.40;99.90
73586;DHT22;61865;50.232;18.614;2022-08-20T06:35:35;23.50;99.90
73586;DHT22;61865;50.232;18.614;2022-08-20T06:37:58;23.60;99.90
73586;DHT22;61865;50.232;18.614;2022-08-20T06:40:22;23.70;99.90
73586;DHT22;61865;50.232;18.614;2022-08-20T06:42:44;23.40;99.90
73586;DHT22;61865;50.232;18.614;2022-08-20T06:45:08;23.20;99.90
73586;DHT22;61865;50.232;18.614;2022-08-20T06:47:31;22.80;99.90
73586;DHT22;61865;50.232;18.614;2022-08-20T06:49:53;22.70;99.90
73586;DHT22;61865;50.232;18.614;2022-08-20T06:52:16;23.00;99.90
73586;DHT22;61865;50.232;18.614;2022-08-20T06:54:38;23.00;99.90
73586;DHT22;61865;50.232;18.614;2022-08-20T06:57:00;23.10;99.90
73586;DHT22;61865;50.232;18.614;2022-08-20T06:59:22;23.20;99.90
73586;DHT22;61865;50.232;18.614;2022-08-20T07:01:45;23.50;99.90
73586;DHT22;61865;50.232;18.614;2022-08-20T07:04:08;23.50;99.90
73586;DHT22;61865;50.232;18.614;2022-08-20T07:06:30;23.60;99.90
73586;DHT22;61865;50.232;18.614;2022-08-20T07:08:52;23.80;99.90
73586;DHT22;61865;50.232;18.614;2022-08-20T07:11:15;23.80;99.90
73586;DHT22;61865;50.232;18.614;2022-08-20T07:13:37;24.00;99.90
73586;DHT22;61865;50.232;18.614;2022-08-20T07:16:01;23.90;99.90
73586;DHT22;61865;50.232;18.614;2022-08-20T07:18:25;24.10;99.90
73586;DHT22;61865;50.232;18.614;2022-08-20T07:20:47;24.20;99.90
73586;DHT22;61865;50.232;18.614;2022-08-20T07:23:09;24.10;99.90
73586;DHT22;61865;50.232;18.614;2022-08-20T07:25:31;24.00;99.90
73586;DHT22;61865;50.232;18.614;2022-08-20T07:27:59;24.10;99.90
73586;DHT22;61865;50.232;18.614;2022-08-20T07:30:23;24.10;99.90
73586;DHT22;61865;50.232;18.614;2022-08-20T07:33:02;24.10;99.90
73586;DHT22;61865;50.232;18.614;2022-08-20T07:35:26;24.20;99.90
73586;DHT22;61865;50.232;18.614;2022-08-20T07:37:49;24.20;99.90
73586;DHT22;61865;50.232;18.614;2022-08-20T07:40:15;24.00;99.90
73586;DHT22;61865;50.232;18.614;2022-08-20T07:42:37;23.70;99.90
73586;DHT22;61865;50.232;18.614;2022-08-20T07:45:00;23.70;99.90
73586;DHT22;61865;50.232;18.614;2022-08-20T07:47:22;23.80;99.90
73586;DHT22;61865;50.232;18.614;2022-08-20T07:49:44;24.00;99.90
73586;DHT22;61865;50.232;18.614;2022-08-20T07:52:08;24.20;99.90
73586;DHT22;61865;50.232;18.614;2022-08-20T07:54:29;24.30;99.90
73586;DHT22;61865;50.232;18.614;2022-08-20T07:56:51;24.40;99.90
73586;DHT22;61865;50.232;18.614;2022-08-20T07:59:13;24.40;99.90
73586;DHT22;61865;50.232;18.614;2022-08-20T08:01:35;24.40;99.90
73586;DHT22;61865;50.232;18.614;2022-08-20T08:03:58;24.40;99.90
73586;DHT22;61865;50.232;18.614;2022-08-20T08:06:22;24.30;99.00
73586;DHT22;61865;50.232;18.614;2022-08-20T08:08:46;24.30;99.90
73586;DHT22;61865;50.232;18.614;2022-08-20T08:11:08;24.50;99.90
73586;DHT22;61865;50.232;18.614;2022-08-20T08:13:34;24.60;99.90
73586;DHT22;61865;50.232;18.614;2022-08-20T08:15:57;24.70;99.90
73586;DHT22;61865;50.232;18.614;2022-08-20T08:18:27;24.80;99.90
73586;DHT22;61865;50.232;18.614;2022-08-20T08:20:50;24.60;99.90
73586;DHT22;61865;50.232;18.614;2022-08-20T08:23:13;24.60;99.90
73586;DHT22;61865;50.232;18.614;2022-08-20T08:25:36;24.50;99.90
73586;DHT22;61865;50.232;18.614;2022-08-20T08:27:58;24.50;99.20
73586;DHT22;61865;50.232;18.614;2022-08-20T08:30:22;24.70;99.90
73586;DHT22;61865;50.232;18.614;2022-08-20T08:32:45;24.80;94.40
73586;DHT22;61865;50.232;18.614;2022-08-20T08:35:25;24.80;97.60
73586;DHT22;61865;50.232;18.614;2022-08-20T08:37:46;24.90;92.50
73586;DHT22;61865;50.232;18.614;2022-08-20T08:40:09;24.90;94.40
73586;DHT22;61865;50.232;18.614;2022-08-20T08:42:44;25.10;96.10
73586;DHT22;61865;50.232;18.614;2022-08-20T08:45:08;25.40;96.70
73586;DHT22;61865;50.232;18.614;2022-08-20T08:47:34;25.40;89.20
73586;DHT22;61865;50.232;18.614;2022-08-20T08:49:57;25.50;87.20
73586;DHT22;61865;50.232;18.614;2022-08-20T08:52:22;25.50;90.80
73586;DHT22;61865;50.232;18.614;2022-08-20T08:54:48;25.70;91.50
73586;DHT22;61865;50.232;18.614;2022-08-20T08:57:10;25.90;87.60
73586;DHT22;61865;50.232;18.614;2022-08-20T08:59:34;26.10;83.90
73586;DHT22;61865;50.232;18.614;2022-08-20T09:01:58;26.40;87.00
73586;DHT22;61865;50.232;18.614;2022-08-20T09:04:22;26.60;85.70
73586;DHT22;61865;50.232;18.614;2022-08-20T09:06:44;26.80;81.00
73586;DHT22;61865;50.232;18.614;2022-08-20T09:09:17;27.00;78.20
73586;DHT22;61865;50.232;18.614;2022-08-20T09:11:44;27.30;79.80
73586;DHT22;61865;50.232;18.614;2022-08-20T09:14:06;27.50;80.20
73586;DHT22;61865;50.232;18.614;2022-08-20T09:16:30;27.60;82.90
73586;DHT22;61865;50.232;18.614;2022-08-20T09:18:51;27.80;79.10
73586;DHT22;61865;50.232;18.614;2022-08-20T09:21:14;27.90;77.00
73586;DHT22;61865;50.232;18.614;2022-08-20T09:23:36;28.00;74.80
73586;DHT22;61865;50.232;18.614;2022-08-20T09:25:58;28.00;75.20
73586;DHT22;61865;50.232;18.614;2022-08-20T09:28:20;28.10;73.20
73586;DHT22;61865;50.232;18.614;2022-08-20T09:30:42;28.10;69.00
73586;DHT22;61865;50.232;18.614;2022-08-20T09:33:05;28.10;70.20
73586;DHT22;61865;50.232;18.614;2022-08-20T09:35:27;28.00;69.40
73586;DHT22;61865;50.232;18.614;2022-08-20T09:37:49;27.80;68.10
73586;DHT22;61865;50.232;18.614;2022-08-20T09:40:12;28.10;78.30
73586;DHT22;61865;50.232;18.614;2022-08-20T09:42:35;28.30;73.50
73586;DHT22;61865;50.232;18.614;2022-08-20T09:44:58;28.50;75.40
73586;DHT22;61865;50.232;18.614;2022-08-20T09:47:21;28.80;71.40
73586;DHT22;61865;50.232;18.614;2022-08-20T09:49:45;29.20;69.70
73586;DHT22;61865;50.232;18.614;2022-08-20T09:52:09;29.40;67.60
73586;DHT22;61865;50.232;18.614;2022-08-20T09:54:32;29.60;69.60
73586;DHT22;61865;50.232;18.614;2022-08-20T09:56:55;29.60;66.70
73586;DHT22;61865;50.232;18.614;2022-08-20T09:59:17;29.60;69.60
73586;DHT22;61865;50.232;18.614;2022-08-20T10:01:39;29.70;66.70
73586;DHT22;61865;50.232;18.614;2022-08-20T10:04:01;29.60;67.00
73586;DHT22;61865;50.232;18.614;2022-08-20T10:06:24;29.50;69.80
73586;DHT22;61865;50.232;18.614;2022-08-20T10:08:47;29.50;65.30
73586;DHT22;61865;50.232;18.614;2022-08-20T10:11:09;29.60;63.80
73586;DHT22;61865;50.232;18.614;2022-08-20T10:13:31;29.60;68.40
73586;DHT22;61865;50.232;18.614;2022-08-20T10:15:53;29.90;69.40
73586;DHT22;61865;50.232;18.614;2022-08-20T10:18:15;30.10;66.70
73586;DHT22;61865;50.232;18.614;2022-08-20T10:20:36;30.20;62.20
73586;DHT22;61865;50.232;18.614;2022-08-20T10:23:00;30.30;64.10
73586;DHT22;61865;50.232;18.614;2022-08-20T10:25:22;30.10;63.40
73586;DHT22;61865;50.232;18.614;2022-08-20T10:27:44;30.20;62.30
73586;DHT22;61865;50.232;18.614;2022-08-20T10:30:07;30.30;61.50
73586;DHT22;61865;50.232;18.614;2022-08-20T10:32:29;30.60;62.80
73586;DHT22;61865;50.232;18.614;2022-08-20T10:34:51;30.70;60.60
73586;DHT22;61865;50.232;18.614;2022-08-20T10:37:14;30.80;61.10
73586;DHT22;61865;50.232;18.614;2022-08-20T10:39:37;30.70;58.00
73586;DHT22;61865;50.232;18.614;2022-08-20T10:41:59;30.30;54.60
73586;DHT22;61865;50.232;18.614;2022-08-20T10:44:21;30.20;57.60
73586;DHT22;61865;50.232;18.614;2022-08-20T10:46:43;30.10;58.50
73586;DHT22;61865;50.232;18.614;2022-08-20T10:49:05;30.00;59.00
73586;DHT22;61865;50.232;18.614;2022-08-20T10:51:27;29.70;58.40
73586;DHT22;61865;50.232;18.614;2022-08-20T10:53:49;29.60;61.50
73586;DHT22;61865;50.232;18.614;2022-08-20T10:56:12;29.50;58.00
73586;DHT22;61865;50.232;18.614;2022-08-20T10:58:34;29.50;60.70
73586;DHT22;61865;50.232;18.614;2022-08-20T11:00:56;29.40;59.10
73586;DHT22;61865;50.232;18.614;2022-08-20T11:03:18;29.30;56.70
73586;DHT22;61865;50.232;18.614;2022-08-20T11:05:40;29.20;58.40
73586;DHT22;61865;50.232;18.614;2022-08-20T11:08:03;29.10;59.60
73586;DHT22;61865;50.232;18.614;2022-08-20T11:10:27;29.10;59.00
73586;DHT22;61865;50.232;18.614;2022-08-20T11:12:51;29.00;58.50
73586;DHT22;61865;50.232;18.614;2022-08-20T11:15:14;28.90;62.60
73586;DHT22;61865;50.232;18.614;2022-08-20T11:17:39;28.70;58.40
73586;DHT22;61865;50.232;18.614;2022-08-20T11:20:02;28.70;61.00
73586;DHT22;61865;50.232;18.614;2022-08-20T11:22:25;28.70;62.10
73586;DHT22;61865;50.232;18.614;2022-08-20T11:24:47;28.70;65.30
73586;DHT22;61865;50.232;18.614;2022-08-20T11:27:09;28.80;63.60
73586;DHT22;61865;50.232;18.614;2022-08-20T11:29:33;28.70;61.70
73586;DHT22;61865;50.232;18.614;2022-08-20T11:31:57;28.70;61.60
73586;DHT22;61865;50.232;18.614;2022-08-20T11:34:19;28.60;62.20
73586;DHT22;61865;50.232;18.614;2022-08-20T11:36:41;28.60;66.00
73586;DHT22;61865;50.232;18.614;2022-08-20T11:39:03;28.70;60.60
73586;DHT22;61865;50.232;18.614;2022-08-20T11:41:24;28.60;60.40
73586;DHT22;61865;50.232;18.614;2022-08-20T11:43:46;28.50;60.80
73586;DHT22;61865;50.232;18.614;2022-08-20T11:46:09;28.50;61.10
73586;DHT22;61865;50.232;18.614;2022-08-20T11:48:31;28.60;62.50
73586;DHT22;61865;50.232;18.614;2022-08-20T11:50:53;28.70;63.70
73586;DHT22;61865;50.232;18.614;2022-08-20T11:53:16;28.80;62.70
73586;DHT22;61865;50.232;18.614;2022-08-20T11:55:38;28.80;63.30
73586;DHT22;61865;50.232;18.614;2022-08-20T11:58:00;28.90;65.20
73586;DHT22;61865;50.232;18.614;2022-08-20T12:00:23;28.90;63.80
73586;DHT22;61865;50.232;18.614;2022-08-20T12:02:47;28.80;65.50
73586;DHT22;61865;50.232;18.614;2022-08-20T12:05:11;28.70;71.80
73586;DHT22;61865;50.232;18.614;2022-08-20T12:07:33;28.60;70.00
73586;DHT22;61865;50.232;18.614;2022-08-20T12:09:55;28.50;65.40
73586;DHT22;61865;50.232;18.614;2022-08-20T12:12:17;28.30;67.30
73586;DHT22;61865;50.232;18.614;2022-08-20T12:14:40;28.00;65.40
73586;DHT22;61865;50.232;18.614;2022-08-20T12:17:07;27.80;70.80
73586;DHT22;61865;50.232;18.614;2022-08-20T12:19:30;27.70;72.00
73586;DHT22;61865;50.232;18.614;2022-08-20T12:21:52;27.50;73.50
73586;DHT22;61865;50.232;18.614;2022-08-20T12:24:14;27.40;73.20
73586;DHT22;61865;50.232;18.614;2022-08-20T12:26:35;27.10;78.10
73586;DHT22;61865;50.232;18.614;2022-08-20T12:28:57;27.00;90.90
73586;DHT22;61865;50.232;18.614;2022-08-20T12:31:19;26.90;91.20
73586;DHT22;61865;50.232;18.614;2022-08-20T12:33:41;26.60;90.00
73586;DHT22;61865;50.232;18.614;2022-08-20T12:36:05;26.50;95.60
73586;DHT22;61865;50.232;18.614;2022-08-20T12:38:27;26.40;95.60
73586;DHT22;61865;50.232;18.614;2022-08-20T12:40:49;26.20;96.40
73586;DHT22;61865;50.232;18.614;2022-08-20T12:43:11;26.00;99.90
73586;DHT22;61865;50.232;18.614;2022-08-20T12:45:32;25.90;99.90
73586;DHT22;61865;50.232;18.614;2022-08-20T12:48:00;25.80;99.90
73586;DHT22;61865;50.232;18.614;2022-08-20T12:50:23;25.70;99.90
73586;DHT22;61865;50.232;18.614;2022-08-20T12:52:48;25.40;99.90
73586;DHT22;61865;50.232;18.614;2022-08-20T12:55:12;25.20;99.90
73586;DHT22;61865;50.232;18.614;2022-08-20T12:57:36;25.10;99.90
73586;DHT22;61865;50.232;18.614;2022-08-20T13:00:00;24.80;99.90
73586;DHT22;61865;50.232;18.614;2022-08-20T13:02:22;24.60;99.90
73586;DHT22;61865;50.232;18.614;2022-08-20T13:04:44;24.50;99.90
73586;DHT22;61865;50.232;18.614;2022-08-20T13:07:09;24.30;99.90
73586;DHT22;61865;50.232;18.614;2022-08-20T13:09:33;24.30;99.90
73586;DHT22;61865;50.232;18.614;2022-08-20T13:11:55;24.10;99.90
73586;DHT22;61865;50.232;18.614;2022-08-20T13:14:17;24.00;99.90
73586;DHT22;61865;50.232;18.614;2022-08-20T13:16:39;24.00;99.90
73586;DHT22;61865;50.232;18.614;2022-08-20T13:19:01;23.90;99.90
73586;DHT22;61865;50.232;18.614;2022-08-20T13:21:23;23.70;99.90
73586;DHT22;61865;50.232;18.614;2022-08-20T13:23:45;23.50;99.90
73586;DHT22;61865;50.232;18.614;2022-08-20T13:26:09;23.30;99.90
73586;DHT22;61865;50.232;18.614;2022-08-20T13:28:31;23.20;99.90
73586;DHT22;61865;50.232;18.614;2022-08-20T13:30:52;23.10;99.90
73586;DHT22;61865;50.232;18.614;2022-08-20T13:33:15;22.90;99.90
73586;DHT22;61865;50.232;18.614;2022-08-20T13:35:37;22.70;99.90
73586;DHT22;61865;50.232;18.614;2022-08-20T13:37:59;22.50;99.90
73586;DHT22;61865;50.232;18.614;2022-08-20T13:40:21;22.50;99.90
73586;DHT22;61865;50.232;18.614;2022-08-20T13:42:44;22.40;99.90
73586;DHT22;61865;50.232;18.614;2022-08-20T13:45:07;22.40;99.90
73586;DHT22;61865;50.232;18.614;2022-08-20T13:47:32;22.30;99.90
73586;DHT22;61865;50.232;18.614;2022-08-20T13:49:56;22.30;99.90
73586;DHT22;61865;50.232;18.614;2022-08-20T13:52:18;22.20;99.90
73586;DHT22;61865;50.232;18.614;2022-08-20T13:54:40;22.20;99.90
73586;DHT22;61865;50.232;18.614;2022-08-20T13:57:06;22.20;99.90
73586;DHT22;61865;50.232;18.614;2022-08-20T13:59:29;22.00;99.90
73586;DHT22;61865;50.232;18.614;2022-08-20T14:01:51;21.90;99.90
73586;DHT22;61865;50.232;18.614;2022-08-20T14:04:13;21.90;99.90
73586;DHT22;61865;50.232;18.614;2022-08-20T14:06:34;21.90;99.90
73586;DHT22;61865;50.232;18.614;2022-08-20T14:08:56;21.80;99.90
73586;DHT22;61865;50.232;18.614;2022-08-20T14:11:18;21.80;99.90
73586;DHT22;61865;50.232;18.614;2022-08-20T14:13:40;21.80;99.90
73586;DHT22;61865;50.232;18.614;2022-08-20T14:16:04;21.80;99.90
73586;DHT22;61865;50.232;18.614;2022-08-20T14:18:26;21.70;99.90
73586;DHT22;61865;50.232;18.614;2022-08-20T14:20:48;21.70;99.90
73586;DHT22;61865;50.232;18.614;2022-08-20T14:23:10;21.60;99.90
73586;DHT22;61865;50.232;18.614;2022-08-20T14:25:32;21.50;99.90
73586;DHT22;61865;50.232;18.614;2022-08-20T14:27:55;21.50;99.90
73586;DHT22;61865;50.232;18.614;2022-08-20T14:30:18;21.40;99.90
73586;DHT22;61865;50.232;18.614;2022-08-20T14:32:42;21.40;99.90
73586;DHT22;61865;50.232;18.614;2022-08-20T14:35:05;21.30;99.90
73586;DHT22;61865;50.232;18.614;2022-08-20T14:37:29;21.20;99.90
73586;DHT22;61865;50.232;18.614;2022-08-20T14:39:54;21.20;99.90
73586;DHT22;61865;50.232;18.614;2022-08-20T14:42:16;21.20;99.90
73586;DHT22;61865;50.232;18.614;2022-08-20T14:44:40;21.20;99.90
73586;DHT22;61865;50.232;18.614;2022-08-20T14:47:16;21.20;99.90
73586;DHT22;61865;50.232;18.614;2022-08-20T14:49:39;21.20;99.90